Cook Station, Missouri
Current Conditions -  °F | °C
As of 11:17 AM on Friday 24 Oct 2014 (Local Time) from KVIH Reporting Station
Scattered Clouds Scattered Clouds  
Wind Chill: 62°   Ceiling: Unl
Heat Index: 62°   Visibility: 10mi
Dew Point: 54°   Wind: 7mph
Humidity: 75%   Direction: 170°S
Pressure: 30.12"   Gusts: NA
Location:  37.81°N, 91.44°W
Report Text: KVIH 241617Z AUTO 17006KT 10SM SCT013 17/12 A3012 RMK AO2 T01670122
Loading
Personal Weather Stations






























Interactive Weather Map
Tropical Storm Tracking
New forecast layout! Learn more

10-Day Weather Forecast

Advertisements
Track Severe Weather on mobile